sensor_id;sensor_type;location;lat;lon;timestamp;pressure;altitude;pressure_sealevel;temperature;humidity
58739;BME280;44512;53.046;18.604;2023-04-29T00:04:46;101409.95;;;12.09;40.69
58739;BME280;44512;53.046;18.604;2023-04-29T00:15:14;101406.41;;;12.09;40.67
58739;BME280;44512;53.046;18.604;2023-04-29T00:25:42;101399.31;;;12.08;40.72
58739;BME280;44512;53.046;18.604;2023-04-29T00:36:11;101392.22;;;12.07;40.84
58739;BME280;44512;53.046;18.604;2023-04-29T00:46:39;101387.15;;;12.04;40.98
58739;BME280;44512;53.046;18.604;2023-04-29T00:57:08;101384.18;;;11.98;41.20
58739;BME280;44512;53.046;18.604;2023-04-29T01:18:11;101373.59;;;11.82;41.58
58739;BME280;44512;53.046;18.604;2023-04-29T01:28:45;101381.84;;;11.74;42.13
58739;BME280;44512;53.046;18.604;2023-04-29T01:49:34;101377.28;;;11.60;42.73
58739;BME280;44512;53.046;18.604;2023-04-29T01:59:58;101371.59;;;11.55;43.03
58739;BME280;44512;53.046;18.604;2023-04-29T02:10:27;101373.20;;;11.49;43.25
58739;BME280;44512;53.046;18.604;2023-04-29T02:20:59;101362.56;;;11.47;43.38
58739;BME280;44512;53.046;18.604;2023-04-29T02:31:23;101357.30;;;11.46;43.57
58739;BME280;44512;53.046;18.604;2023-04-29T02:41:55;101348.13;;;11.47;43.73
58739;BME280;44512;53.046;18.604;2023-04-29T02:52:20;101335.62;;;11.46;43.79
58739;BME280;44512;53.046;18.604;2023-04-29T03:02:49;101332.27;;;11.44;43.96
58739;BME280;44512;53.046;18.604;2023-04-29T03:13:17;101333.48;;;11.41;44.15
58739;BME280;44512;53.046;18.604;2023-04-29T03:23:45;101333.61;;;11.33;44.45
58739;BME280;44512;53.046;18.604;2023-04-29T03:34:14;101339.40;;;11.30;44.76
58739;BME280;44512;53.046;18.604;2023-04-29T03:44:42;101334.39;;;11.27;45.16
58739;BME280;44512;53.046;18.604;2023-04-29T03:55:11;101333.64;;;11.18;45.59
58739;BME280;44512;53.046;18.604;2023-04-29T04:05:39;101328.02;;;11.20;46.00
58739;BME280;44512;53.046;18.604;2023-04-29T04:16:11;101316.98;;;11.21;46.11
58739;BME280;44512;53.046;18.604;2023-04-29T04:26:36;101325.31;;;11.20;46.17
58739;BME280;44512;53.046;18.604;2023-04-29T04:37:05;101326.98;;;11.21;46.27
58739;BME280;44512;53.046;18.604;2023-04-29T04:47:33;101328.70;;;11.22;46.42
58739;BME280;44512;53.046;18.604;2023-04-29T04:58:01;101340.64;;;11.28;46.62
58739;BME280;44512;53.046;18.604;2023-04-29T05:08:30;101340.44;;;11.29;46.88
58739;BME280;44512;53.046;18.604;2023-04-29T05:18:58;101337.16;;;11.34;47.03
58739;BME280;44512;53.046;18.604;2023-04-29T05:29:26;101340.98;;;11.39;47.38
58739;BME280;44512;53.046;18.604;2023-04-29T05:39:55;101339.57;;;11.43;47.60
58739;BME280;44512;53.046;18.604;2023-04-29T05:50:23;101344.43;;;11.48;48.06
58739;BME280;44512;53.046;18.604;2023-04-29T06:00:52;101333.02;;;11.53;48.29
58739;BME280;44512;53.046;18.604;2023-04-29T06:11:20;101329.12;;;11.62;48.43
58739;BME280;44512;53.046;18.604;2023-04-29T06:21:48;101342.16;;;11.73;48.47
58739;BME280;44512;53.046;18.604;2023-04-29T06:32:17;101345.43;;;11.83;48.64
58739;BME280;44512;53.046;18.604;2023-04-29T06:42:45;101336.13;;;11.92;48.73
58739;BME280;44512;53.046;18.604;2023-04-29T06:53:14;101334.59;;;12.05;48.86
58739;BME280;44512;53.046;18.604;2023-04-29T07:03:42;101325.91;;;12.16;48.77
58739;BME280;44512;53.046;18.604;2023-04-29T07:14:10;101328.09;;;12.27;48.59
58739;BME280;44512;53.046;18.604;2023-04-29T07:24:39;101334.80;;;12.31;48.79
58739;BME280;44512;53.046;18.604;2023-04-29T07:35:08;101338.20;;;12.40;48.93
58739;BME280;44512;53.046;18.604;2023-04-29T07:45:36;101340.15;;;12.46;49.29
58739;BME280;44512;53.046;18.604;2023-04-29T07:56:08;101334.34;;;12.56;49.58
58739;BME280;44512;53.046;18.604;2023-04-29T08:06:33;101342.59;;;12.69;49.63
58739;BME280;44512;53.046;18.604;2023-04-29T08:17:01;101344.74;;;12.80;50.53
58739;BME280;44512;53.046;18.604;2023-04-29T08:27:29;101350.66;;;12.90;51.37
58739;BME280;44512;53.046;18.604;2023-04-29T08:37:57;101349.22;;;12.94;51.69
58739;BME280;44512;53.046;18.604;2023-04-29T08:48:26;101370.35;;;12.99;51.35
58739;BME280;44512;53.046;18.604;2023-04-29T08:58:56;101370.80;;;13.02;50.90
58739;BME280;44512;53.046;18.604;2023-04-29T09:09:24;101373.95;;;13.06;50.61
58739;BME280;44512;53.046;18.604;2023-04-29T09:19:51;101373.55;;;13.09;50.39
58739;BME280;44512;53.046;18.604;2023-04-29T09:30:20;101373.34;;;13.11;50.21
58739;BME280;44512;53.046;18.604;2023-04-29T09:40:48;101380.45;;;13.12;50.06
58739;BME280;44512;53.046;18.604;2023-04-29T09:51:16;101364.81;;;13.20;49.81
58739;BME280;44512;53.046;18.604;2023-04-29T10:01:53;101371.58;;;13.31;49.89
58739;BME280;44512;53.046;18.604;2023-04-29T10:12:18;101366.39;;;13.43;49.75
58739;BME280;44512;53.046;18.604;2023-04-29T10:22:49;101359.95;;;13.50;49.65
58739;BME280;44512;53.046;18.604;2023-04-29T10:33:11;101360.59;;;13.59;49.83
58739;BME280;44512;53.046;18.604;2023-04-29T10:43:38;101351.41;;;13.67;49.63
58739;BME280;44512;53.046;18.604;2023-04-29T10:54:13;101337.20;;;13.78;49.73
58739;BME280;44512;53.046;18.604;2023-04-29T11:15:07;101329.07;;;13.98;49.19
58739;BME280;44512;53.046;18.604;2023-04-29T11:25:32;101330.55;;;14.07;49.03
58739;BME280;44512;53.046;18.604;2023-04-29T11:36:00;101324.04;;;14.15;48.59
58739;BME280;44512;53.046;18.604;2023-04-29T11:46:33;101308.13;;;14.25;48.59
58739;BME280;44512;53.046;18.604;2023-04-29T11:56:57;101313.77;;;14.37;49.02
58739;BME280;44512;53.046;18.604;2023-04-29T12:07:26;101296.62;;;14.49;49.90
58739;BME280;44512;53.046;18.604;2023-04-29T12:17:54;101300.77;;;14.65;49.42
58739;BME280;44512;53.046;18.604;2023-04-29T12:28:23;101287.32;;;14.83;49.25
58739;BME280;44512;53.046;18.604;2023-04-29T12:38:51;101273.35;;;15.11;48.70
58739;BME280;44512;53.046;18.604;2023-04-29T12:49:19;101266.49;;;15.41;47.70
58739;BME280;44512;53.046;18.604;2023-04-29T12:59:47;101264.88;;;15.65;48.17
58739;BME280;44512;53.046;18.604;2023-04-29T13:10:16;101253.16;;;15.89;47.98
58739;BME280;44512;53.046;18.604;2023-04-29T13:20:44;101244.80;;;16.09;47.74
58739;BME280;44512;53.046;18.604;2023-04-29T13:31:12;101233.05;;;16.27;47.40
58739;BME280;44512;53.046;18.604;2023-04-29T13:41:41;101228.30;;;16.40;46.99
58739;BME280;44512;53.046;18.604;2023-04-29T13:52:10;101227.54;;;16.52;46.45
58739;BME280;44512;53.046;18.604;2023-04-29T14:02:37;101229.30;;;16.64;45.81
58739;BME280;44512;53.046;18.604;2023-04-29T14:13:06;101218.31;;;16.71;46.86
58739;BME280;44512;53.046;18.604;2023-04-29T14:23:34;101227.49;;;16.77;47.27
58739;BME280;44512;53.046;18.604;2023-04-29T14:34:03;101212.91;;;16.83;47.55
58739;BME280;44512;53.046;18.604;2023-04-29T14:49:43;101198.41;;;17.12;47.63
58739;BME280;44512;53.046;18.604;2023-04-29T15:00:12;101186.83;;;17.40;46.75
58739;BME280;44512;53.046;18.604;2023-04-29T15:10:40;101197.22;;;17.62;46.51
58739;BME280;44512;53.046;18.604;2023-04-29T15:21:08;101196.65;;;17.71;46.40
58739;BME280;44512;53.046;18.604;2023-04-29T15:31:37;101203.81;;;17.73;45.72
58739;BME280;44512;53.046;18.604;2023-04-29T15:42:05;101204.27;;;17.69;46.22
58739;BME280;44512;53.046;18.604;2023-04-29T15:52:33;101203.44;;;17.69;46.15
58739;BME280;44512;53.046;18.604;2023-04-29T16:03:02;101209.38;;;17.66;45.59
58739;BME280;44512;53.046;18.604;2023-04-29T16:13:30;101213.06;;;17.60;45.85
58739;BME280;44512;53.046;18.604;2023-04-29T16:23:58;101199.95;;;17.50;46.08
58739;BME280;44512;53.046;18.604;2023-04-29T16:34:26;101208.86;;;17.45;45.78
58739;BME280;44512;53.046;18.604;2023-04-29T16:44:55;101216.09;;;17.40;45.76
58739;BME280;44512;53.046;18.604;2023-04-29T16:55:23;101218.45;;;17.36;45.92
58739;BME280;44512;53.046;18.604;2023-04-29T17:05:52;101221.20;;;17.36;46.19
58739;BME280;44512;53.046;18.604;2023-04-29T17:16:20;101225.84;;;17.36;46.46
58739;BME280;44512;53.046;18.604;2023-04-29T17:26:48;101235.95;;;17.35;46.68
58739;BME280;44512;53.046;18.604;2023-04-29T17:37:16;101237.85;;;17.35;47.01
58739;BME280;44512;53.046;18.604;2023-04-29T17:47:45;101240.59;;;17.35;47.39
58739;BME280;44512;53.046;18.604;2023-04-29T17:58:13;101229.05;;;17.33;47.67
58739;BME280;44512;53.046;18.604;2023-04-29T18:08:43;101237.27;;;17.33;48.22
58739;BME280;44512;53.046;18.604;2023-04-29T18:19:10;101236.64;;;17.31;48.57
58739;BME280;44512;53.046;18.604;2023-04-29T18:29:38;101253.53;;;17.28;48.95
58739;BME280;44512;53.046;18.604;2023-04-29T18:40:08;101278.62;;;17.25;49.56
58739;BME280;44512;53.046;18.604;2023-04-29T18:50:35;101295.66;;;17.08;51.39
58739;BME280;44512;53.046;18.604;2023-04-29T19:01:04;101325.88;;;16.95;51.81
58739;BME280;44512;53.046;18.604;2023-04-29T19:11:32;101348.92;;;16.87;52.23
58739;BME280;44512;53.046;18.604;2023-04-29T19:22:00;101408.78;;;16.71;53.80
58739;BME280;44512;53.046;18.604;2023-04-29T19:32:29;101380.46;;;16.40;55.47
58739;BME280;44512;53.046;18.604;2023-04-29T19:42:58;101391.14;;;16.17;57.15
58739;BME280;44512;53.046;18.604;2023-04-29T19:53:26;101398.45;;;15.91;58.26
58739;BME280;44512;53.046;18.604;2023-04-29T20:03:54;101396.05;;;15.70;58.88
58739;BME280;44512;53.046;18.604;2023-04-29T20:14:22;101401.10;;;15.59;59.17
58739;BME280;44512;53.046;18.604;2023-04-29T20:24:51;101420.89;;;15.48;59.16
58739;BME280;44512;53.046;18.604;2023-04-29T20:35:19;101439.19;;;15.34;59.49
58739;BME280;44512;53.046;18.604;2023-04-29T20:45:47;101443.63;;;15.22;59.88
58739;BME280;44512;53.046;18.604;2023-04-29T20:56:16;101465.47;;;15.09;60.02
58739;BME280;44512;53.046;18.604;2023-04-29T21:06:44;101473.05;;;15.00;60.38
58739;BME280;44512;53.046;18.604;2023-04-29T21:17:13;101480.56;;;14.98;60.71
58739;BME280;44512;53.046;18.604;2023-04-29T21:27:41;101505.34;;;14.90;60.74
58739;BME280;44512;53.046;18.604;2023-04-29T21:38:09;101522.73;;;14.82;60.70
58739;BME280;44512;53.046;18.604;2023-04-29T21:48:38;101532.15;;;14.67;58.59
58739;BME280;44512;53.046;18.604;2023-04-29T21:59:06;101539.49;;;14.53;57.56
58739;BME280;44512;53.046;18.604;2023-04-29T22:09:34;101556.18;;;14.43;58.37
58739;BME280;44512;53.046;18.604;2023-04-29T22:20:04;101567.26;;;14.35;58.74
58739;BME280;44512;53.046;18.604;2023-04-29T22:30:31;101562.41;;;14.24;58.18
58739;BME280;44512;53.046;18.604;2023-04-29T22:41:00;101588.55;;;14.12;57.86
58739;BME280;44512;53.046;18.604;2023-04-29T22:51:28;101606.09;;;14.02;56.87
58739;BME280;44512;53.046;18.604;2023-04-29T23:01:56;101604.33;;;13.88;56.40
58739;BME280;44512;53.046;18.604;2023-04-29T23:12:25;101616.82;;;13.76;56.67
58739;BME280;44512;53.046;18.604;2023-04-29T23:22:53;101630.98;;;13.65;56.73
58739;BME280;44512;53.046;18.604;2023-04-29T23:33:22;101639.66;;;13.53;56.23
58739;BME280;44512;53.046;18.604;2023-04-29T23:43:50;101649.41;;;13.41;56.04
58739;BME280;44512;53.046;18.604;2023-04-29T23:54:18;101655.77;;;13.27;56.06
